createdAt,value
2023-02-22T00:02:13.301Z,10.50
2023-02-22T00:04:41.756Z,13.20
2023-02-22T00:07:10.294Z,12.20
2023-02-22T00:09:40.278Z,13.57
2023-02-22T00:12:10.296Z,16.70
2023-02-22T00:14:40.489Z,19.10
2023-02-22T00:17:08.909Z,18.43
2023-02-22T00:19:37.774Z,18.00
2023-02-22T00:22:06.206Z,16.30
2023-02-22T00:24:36.535Z,19.50
2023-02-22T00:27:06.506Z,18.37
2023-02-22T00:29:35.572Z,19.27
2023-02-22T00:32:04.276Z,17.07
2023-02-22T00:34:32.816Z,17.07
2023-02-22T00:37:04.461Z,17.87
2023-02-22T00:39:32.966Z,19.33
2023-02-22T00:42:01.327Z,20.10
2023-02-22T00:44:33.250Z,24.00
2023-02-22T00:47:01.694Z,20.93
2023-02-22T00:49:30.112Z,17.03
2023-02-22T00:51:58.502Z,18.60
2023-02-22T00:54:26.828Z,17.13
2023-02-22T00:56:55.296Z,18.77
2023-02-22T00:59:23.667Z,17.40
2023-02-22T01:01:53.852Z,21.77
2023-02-22T01:04:22.466Z,15.23
2023-02-22T01:06:51.582Z,17.37
2023-02-22T01:09:20.051Z,14.57
2023-02-22T01:11:49.205Z,15.47
2023-02-22T01:14:21.251Z,14.93
2023-02-22T01:16:50.806Z,15.87
2023-02-22T01:19:21.949Z,16.80
2023-02-22T01:21:51.395Z,15.83
2023-02-22T01:24:19.906Z,17.67
2023-02-22T01:26:52.658Z,16.17
2023-02-22T01:29:22.409Z,17.60
2023-02-22T01:31:55.988Z,16.60
2023-02-22T01:34:26.329Z,16.20
2023-02-22T01:36:54.825Z,18.10
2023-02-22T01:39:23.305Z,15.37
2023-02-22T01:41:53.805Z,15.00
2023-02-22T01:44:28.899Z,14.10
2023-02-22T01:47:02.161Z,16.27
2023-02-22T01:49:36.077Z,15.07
2023-02-22T01:52:09.868Z,16.20
2023-02-22T01:54:43.122Z,13.37
2023-02-22T01:57:17.131Z,13.53
2023-02-22T01:59:49.983Z,15.53
2023-02-22T02:02:21.748Z,14.47
2023-02-22T02:04:51.600Z,14.57
2023-02-22T02:07:22.777Z,13.97
2023-02-22T02:09:59.682Z,12.40
2023-02-22T02:12:31.280Z,12.60
2023-02-22T02:15:21.870Z,15.83
2023-02-22T02:17:52.622Z,12.70
2023-02-22T02:20:28.376Z,13.20
2023-02-22T02:23:06.352Z,14.27
2023-02-22T02:26:05.447Z,14.77
2023-02-22T02:29:16.203Z,13.77
2023-02-22T02:32:16.574Z,11.13
2023-02-22T02:34:56.262Z,13.87
2023-02-22T02:37:34.435Z,11.67
2023-02-22T02:40:12.519Z,11.67
2023-02-22T02:42:45.868Z,11.60
2023-02-22T02:45:20.604Z,15.80
2023-02-22T02:47:56.674Z,11.77
2023-02-22T02:50:28.585Z,9.97
2023-02-22T02:53:02.569Z,11.47
2023-02-22T02:55:36.774Z,11.43
2023-02-22T02:58:06.316Z,12.53
2023-02-22T03:00:39.698Z,11.97
2023-02-22T03:03:29.829Z,10.93
2023-02-22T03:06:22.976Z,15.10
2023-02-22T03:08:58.567Z,11.43
2023-02-22T03:11:31.569Z,12.30
2023-02-22T03:14:08.414Z,10.73
2023-02-22T03:16:46.030Z,12.13
2023-02-22T03:19:24.615Z,9.73
2023-02-22T03:21:59.001Z,9.83
2023-02-22T03:24:33.064Z,8.97
2023-02-22T03:27:09.482Z,11.93
2023-02-22T03:29:45.475Z,11.90
2023-02-22T03:32:23.039Z,10.03
2023-02-22T03:34:58.274Z,11.67
2023-02-22T03:37:34.172Z,11.20
2023-02-22T03:40:14.027Z,9.90
2023-02-22T03:42:50.269Z,11.37
2023-02-22T03:45:22.246Z,10.90
2023-02-22T03:47:54.598Z,11.50
2023-02-22T03:50:31.117Z,12.37
2023-02-22T03:53:00.323Z,9.97
2023-02-22T03:55:31.610Z,11.43
2023-02-22T03:58:03.401Z,10.43
2023-02-22T04:00:35.255Z,11.13
2023-02-22T04:03:04.426Z,11.50
2023-02-22T04:05:34.454Z,9.60
2023-02-22T04:08:03.439Z,10.50
2023-02-22T04:10:33.541Z,12.03
2023-02-22T04:13:02.105Z,9.47
2023-02-22T04:15:30.885Z,9.33
2023-02-22T04:18:05.932Z,9.30
2023-02-22T04:20:35.770Z,10.63
2023-02-22T04:23:10.589Z,10.73
2023-02-22T04:25:41.977Z,12.20
2023-02-22T04:28:14.104Z,11.93
2023-02-22T04:30:54.232Z,9.10
2023-02-22T04:33:24.577Z,11.23
2023-02-22T04:35:57.806Z,10.27
2023-02-22T04:38:27.289Z,9.37
2023-02-22T04:40:57.647Z,13.33
2023-02-22T04:43:26.742Z,13.60
2023-02-22T04:46:04.584Z,10.13
2023-02-22T04:48:33.286Z,9.97
2023-02-22T04:51:03.210Z,10.00
2023-02-22T04:53:32.824Z,11.65
2023-02-22T04:56:01.865Z,10.10
2023-02-22T04:58:31.949Z,8.87
2023-02-22T05:01:00.940Z,10.57
2023-02-22T05:03:29.473Z,12.40
2023-02-22T05:05:57.904Z,15.63
2023-02-22T05:08:29.799Z,13.83
2023-02-22T05:10:58.293Z,16.40
2023-02-22T05:13:26.758Z,16.57
2023-02-22T05:15:55.412Z,14.93
2023-02-22T05:18:23.867Z,18.50
2023-02-22T05:20:52.675Z,18.37
2023-02-22T05:23:21.085Z,17.97
2023-02-22T05:25:50.904Z,16.47
2023-02-22T05:28:19.423Z,20.27
2023-02-22T05:30:47.945Z,19.97
2023-02-22T05:33:16.387Z,24.03
2023-02-22T05:35:44.746Z,20.43
2023-02-22T05:38:15.190Z,18.70
2023-02-22T05:40:44.782Z,18.60
2023-02-22T05:43:15.788Z,20.67
2023-02-22T05:45:44.324Z,24.00
2023-02-22T05:48:13.716Z,19.67
2023-02-22T05:50:42.121Z,18.17
2023-02-22T05:53:10.514Z,19.73
2023-02-22T05:55:38.943Z,20.27
2023-02-22T05:58:07.282Z,19.10
2023-02-22T06:00:37.378Z,18.97
2023-02-22T06:03:08.101Z,24.17
2023-02-22T06:05:36.986Z,19.53
2023-02-22T06:08:07.700Z,18.27
2023-02-22T06:10:36.220Z,18.43
2023-02-22T06:13:05.979Z,21.60
2023-02-22T06:15:34.503Z,20.90
2023-02-22T06:18:04.445Z,20.07
2023-02-22T06:20:33.487Z,19.10
2023-02-22T06:23:01.836Z,19.63
2023-02-22T06:25:32.587Z,20.07
2023-02-22T06:28:01.826Z,16.67
2023-02-22T06:30:31.274Z,19.87
2023-02-22T06:32:59.687Z,22.60
2023-02-22T06:35:29.518Z,19.27
2023-02-22T06:37:57.947Z,17.20
2023-02-22T06:40:29.644Z,23.90
2023-02-22T06:43:00.041Z,16.30
2023-02-22T06:45:28.713Z,18.23
2023-02-22T06:47:57.043Z,18.23
2023-02-22T06:50:28.911Z,15.33
2023-02-22T06:52:59.338Z,21.17
2023-02-22T06:55:29.936Z,19.50
2023-02-22T06:57:58.325Z,22.30
2023-02-22T07:00:28.530Z,17.40
2023-02-22T07:02:57.677Z,20.50
2023-02-22T07:05:27.676Z,17.63
2023-02-22T07:08:04.860Z,20.07
2023-02-22T07:10:34.368Z,16.57
2023-02-22T07:13:03.573Z,22.57
2023-02-22T07:15:33.678Z,20.83
2023-02-22T07:18:02.809Z,21.73
2023-02-22T07:20:32.635Z,28.27
2023-02-22T07:23:02.793Z,20.23
2023-02-22T07:25:31.188Z,18.43
2023-02-22T07:28:00.006Z,18.57
2023-02-22T07:30:31.298Z,20.80
2023-02-22T07:33:01.234Z,20.80
2023-02-22T07:35:31.637Z,21.43
2023-02-22T07:38:00.679Z,21.47
2023-02-22T07:40:30.654Z,22.50
2023-02-22T07:43:01.194Z,27.87
2023-02-22T07:45:31.264Z,25.33
2023-02-22T07:48:00.611Z,27.17
2023-02-22T07:50:31.432Z,22.47
2023-02-22T07:53:03.786Z,23.50
2023-02-22T07:55:34.761Z,24.23
2023-02-22T07:58:06.014Z,18.43
2023-02-22T08:00:36.694Z,20.17
2023-02-22T08:03:07.274Z,23.70
2023-02-22T08:05:37.339Z,24.37
2023-02-22T08:08:07.027Z,21.90
2023-02-22T08:10:37.531Z,20.77
2023-02-22T08:13:06.941Z,20.27
2023-02-22T08:15:37.714Z,19.43
2023-02-22T08:18:09.233Z,34.20
2023-02-22T08:20:38.477Z,22.03
2023-02-22T08:23:07.757Z,13.67
2023-02-22T08:25:37.859Z,15.20
2023-02-22T08:28:08.958Z,13.87
2023-02-22T08:30:40.577Z,15.07
2023-02-22T08:33:09.331Z,14.53
2023-02-22T08:35:37.993Z,22.80
2023-02-22T08:38:07.816Z,15.17
2023-02-22T08:40:39.487Z,13.13
2023-02-22T08:43:07.908Z,15.57
2023-02-22T08:45:36.464Z,10.10
2023-02-22T08:48:05.320Z,11.97
2023-02-22T08:50:35.673Z,15.47
2023-02-22T08:53:06.448Z,12.50
2023-02-22T08:55:39.706Z,12.20
2023-02-22T08:58:10.540Z,10.30
2023-02-22T09:00:40.588Z,10.43
2023-02-22T09:03:13.379Z,9.97
2023-02-22T09:05:42.457Z,9.83
2023-02-22T09:08:11.248Z,14.73
2023-02-22T09:10:41.196Z,11.87
2023-02-22T09:13:09.774Z,10.80
2023-02-22T09:15:39.784Z,15.37
2023-02-22T09:18:09.881Z,12.93
2023-02-22T09:20:38.364Z,10.20
2023-02-22T09:23:09.863Z,17.90
2023-02-22T09:25:38.910Z,10.27
2023-02-22T09:28:09.295Z,8.60
2023-02-22T09:30:38.379Z,13.10
2023-02-22T09:33:10.326Z,13.07
2023-02-22T09:35:42.561Z,13.50
2023-02-22T09:38:11.972Z,9.50
2023-02-22T09:40:46.704Z,12.00
2023-02-22T09:43:35.849Z,13.00
2023-02-22T09:46:19.522Z,15.03
2023-02-22T09:48:59.400Z,10.87
2023-02-22T09:51:32.166Z,13.40
2023-02-22T09:54:05.421Z,12.40
2023-02-22T09:56:35.327Z,16.97
2023-02-22T09:59:09.111Z,12.23
2023-02-22T10:01:44.481Z,10.57
2023-02-22T10:04:20.610Z,10.23
2023-02-22T10:07:06.234Z,16.60
2023-02-22T10:09:42.792Z,14.67
2023-02-22T10:12:16.325Z,18.57
2023-02-22T10:15:01.419Z,13.07
2023-02-22T10:17:37.659Z,10.60
2023-02-22T10:20:22.338Z,10.97
2023-02-22T10:23:03.666Z,14.10
2023-02-22T10:25:37.146Z,11.70
2023-02-22T10:28:12.535Z,13.87
2023-02-22T10:30:44.824Z,11.33
2023-02-22T10:33:18.536Z,11.43
2023-02-22T10:35:47.384Z,12.03
2023-02-22T10:38:20.378Z,12.03
2023-02-22T10:40:54.888Z,11.57
2023-02-22T10:43:24.219Z,13.80
2023-02-22T10:45:56.494Z,14.37
2023-02-22T10:48:27.822Z,13.47
2023-02-22T10:51:02.189Z,14.07
2023-02-22T10:53:31.329Z,16.23
2023-02-22T10:56:13.287Z,10.47
2023-02-22T10:58:48.041Z,9.93
2023-02-22T11:01:27.929Z,11.47
2023-02-22T11:04:02.041Z,8.93
2023-02-22T11:06:31.785Z,10.33
2023-02-22T11:09:10.473Z,10.83
2023-02-22T11:11:40.032Z,13.00
2023-02-22T11:14:10.950Z,12.50
2023-02-22T11:16:44.525Z,11.30
2023-02-22T11:19:23.300Z,11.73
2023-02-22T11:21:54.380Z,12.67
2023-02-22T11:24:30.378Z,11.93
2023-02-22T11:27:03.111Z,9.17
2023-02-22T11:29:34.407Z,12.23
2023-02-22T11:32:14.764Z,17.83
2023-02-22T11:34:44.004Z,8.90
2023-02-22T11:37:29.840Z,12.53
2023-02-22T11:40:25.008Z,10.93
2023-02-22T11:43:12.422Z,9.87
2023-02-22T11:45:49.843Z,11.33
2023-02-22T11:48:26.596Z,10.43
2023-02-22T11:51:05.017Z,9.97
2023-02-22T11:53:48.835Z,10.07
2023-02-22T11:56:35.760Z,8.27
2023-02-22T11:59:16.947Z,10.93
2023-02-22T12:01:51.661Z,9.20
2023-02-22T12:05:04.494Z,8.97
2023-02-22T12:07:54.332Z,9.00
2023-02-22T12:10:34.212Z,9.50
2023-02-22T12:13:18.884Z,15.20
2023-02-22T12:15:57.099Z,9.33
2023-02-22T12:18:34.212Z,9.23
2023-02-22T12:21:06.124Z,12.33
2023-02-22T12:23:45.018Z,13.67
2023-02-22T12:26:20.169Z,10.30
2023-02-22T12:28:59.472Z,10.27
2023-02-22T12:31:34.438Z,8.83
2023-02-22T12:34:12.097Z,10.37
2023-02-22T12:36:46.819Z,11.27
2023-02-22T12:39:52.191Z,13.00
2023-02-22T12:42:29.386Z,10.50
2023-02-22T12:45:05.761Z,7.60
2023-02-22T12:47:41.821Z,7.63
2023-02-22T12:50:19.856Z,9.20
2023-02-22T12:52:53.193Z,9.57
2023-02-22T12:55:26.375Z,7.93
2023-02-22T12:58:03.553Z,8.10
2023-02-22T13:00:39.348Z,8.47
2023-02-22T13:03:30.762Z,9.50
2023-02-22T13:06:21.706Z,10.83
2023-02-22T13:09:00.589Z,9.50
2023-02-22T13:11:38.252Z,7.50
2023-02-22T13:14:34.583Z,7.30
2023-02-22T13:17:07.820Z,11.53
2023-02-22T13:19:44.376Z,10.90
2023-02-22T13:22:20.438Z,9.77
2023-02-22T13:25:02.780Z,11.17
2023-02-22T13:27:39.725Z,12.53
2023-02-22T13:30:19.636Z,11.47
2023-02-22T13:33:04.279Z,7.97
2023-02-22T13:35:47.476Z,11.27
2023-02-22T13:38:51.353Z,13.97
2023-02-22T13:41:40.459Z,9.90
2023-02-22T13:44:47.908Z,9.63
2023-02-22T13:47:55.523Z,10.83
2023-02-22T13:50:40.071Z,11.30
2023-02-22T13:53:15.789Z,12.30
2023-02-22T13:55:49.635Z,10.00
2023-02-22T13:58:18.205Z,10.67
2023-02-22T14:00:50.642Z,16.53
2023-02-22T14:03:41.241Z,11.10
2023-02-22T14:06:11.882Z,10.00
2023-02-22T14:08:46.903Z,10.43
2023-02-22T14:11:56.846Z,11.53
2023-02-22T14:14:26.061Z,11.67
2023-02-22T14:17:28.502Z,14.63
2023-02-22T14:20:21.401Z,10.87
2023-02-22T14:22:53.143Z,9.13
2023-02-22T14:25:45.962Z,10.63
2023-02-22T14:28:38.252Z,12.20
2023-02-22T14:31:17.422Z,14.40
2023-02-22T14:34:04.040Z,9.03
2023-02-22T14:36:36.497Z,12.00
2023-02-22T14:39:12.427Z,12.37
2023-02-22T14:41:47.998Z,12.63
2023-02-22T14:44:22.056Z,9.03
2023-02-22T14:46:52.997Z,12.57
2023-02-22T14:49:28.590Z,16.47
2023-02-22T14:52:04.008Z,13.00
2023-02-22T14:54:39.997Z,13.07
2023-02-22T14:57:15.934Z,9.20
2023-02-22T15:00:01.291Z,11.43
2023-02-22T15:02:40.836Z,9.57
2023-02-22T15:05:14.860Z,9.97
2023-02-22T15:07:52.976Z,13.83
2023-02-22T15:10:26.096Z,10.40
2023-02-22T15:13:09.994Z,7.63
2023-02-22T15:15:41.056Z,9.13
2023-02-22T15:18:23.465Z,11.57
2023-02-22T15:20:57.787Z,12.83
2023-02-22T15:23:33.452Z,7.63
2023-02-22T15:26:03.245Z,11.03
2023-02-22T15:28:32.401Z,8.53
2023-02-22T15:31:26.025Z,9.00
2023-02-22T15:33:55.605Z,8.87
2023-02-22T15:36:28.538Z,12.47
2023-02-22T15:38:59.664Z,8.77
2023-02-22T15:41:31.734Z,8.23
2023-02-22T15:44:17.793Z,7.93
2023-02-22T15:46:51.213Z,8.83
2023-02-22T15:49:24.525Z,9.47
2023-02-22T15:52:07.057Z,11.00
2023-02-22T15:54:43.984Z,13.63
2023-02-22T15:57:17.430Z,9.60
2023-02-22T15:59:49.803Z,8.20
2023-02-22T16:02:33.009Z,10.37
2023-02-22T16:05:06.825Z,9.67
2023-02-22T16:07:42.023Z,10.27
2023-02-22T16:10:23.784Z,8.93
2023-02-22T16:13:05.087Z,11.33
2023-02-22T16:15:33.981Z,8.37
2023-02-22T16:18:27.299Z,10.93
2023-02-22T16:21:04.211Z,9.67
2023-02-22T16:23:44.988Z,11.63
2023-02-22T16:26:30.087Z,12.67
2023-02-22T16:29:00.509Z,12.90
2023-02-22T16:31:33.709Z,8.73
2023-02-22T16:34:03.709Z,10.93
2023-02-22T16:36:41.336Z,9.43
2023-02-22T16:39:20.233Z,9.23
2023-02-22T16:41:51.445Z,10.30
2023-02-22T16:44:21.510Z,7.80
2023-02-22T16:46:49.969Z,9.60
2023-02-22T16:49:18.550Z,11.73
2023-02-22T16:51:49.062Z,13.23
2023-02-22T16:54:24.436Z,9.80
2023-02-22T16:56:53.196Z,14.40
2023-02-22T16:59:21.619Z,12.73
2023-02-22T17:01:50.356Z,8.67
2023-02-22T17:04:22.169Z,8.63
2023-02-22T17:06:50.551Z,10.33
2023-02-22T17:09:21.793Z,11.47
2023-02-22T17:11:52.726Z,23.10
2023-02-22T17:14:27.127Z,14.07
2023-02-22T17:16:55.697Z,7.27
2023-02-22T17:19:25.793Z,10.17
2023-02-22T17:21:54.257Z,11.37
2023-02-22T17:24:29.425Z,9.17
2023-02-22T17:26:59.888Z,8.40
2023-02-22T17:29:29.168Z,11.03
2023-02-22T17:31:57.950Z,9.40
2023-02-22T17:34:26.426Z,12.70
2023-02-22T17:36:56.490Z,14.27
2023-02-22T17:39:27.491Z,16.87
2023-02-22T17:41:57.974Z,13.13
2023-02-22T17:44:26.485Z,10.67
2023-02-22T17:46:55.838Z,13.57
2023-02-22T17:49:24.323Z,12.73
2023-02-22T17:51:53.331Z,11.77
2023-02-22T17:54:23.221Z,15.20
2023-02-22T17:56:53.094Z,24.60
2023-02-22T17:59:21.540Z,24.13
2023-02-22T18:01:52.849Z,20.63
2023-02-22T18:04:21.348Z,21.20
2023-02-22T18:06:49.859Z,18.47
2023-02-22T18:09:20.382Z,16.77
2023-02-22T18:11:48.943Z,16.90
2023-02-22T18:14:18.890Z,16.83
2023-02-22T18:16:48.503Z,15.33
2023-02-22T18:19:21.013Z,18.13
2023-02-22T18:21:50.836Z,17.97
2023-02-22T18:24:19.274Z,18.90
2023-02-22T18:26:47.749Z,17.37
2023-02-22T18:29:16.088Z,21.30
2023-02-22T18:31:46.651Z,12.93
2023-02-22T18:34:15.932Z,14.27
2023-02-22T18:36:44.426Z,14.27
2023-02-22T18:39:13.153Z,16.10
2023-02-22T18:41:41.618Z,11.13
2023-02-22T18:44:11.260Z,10.50
2023-02-22T18:46:39.682Z,9.13
2023-02-22T18:49:12.937Z,9.83
2023-02-22T18:51:43.751Z,6.80
2023-02-22T18:54:13.809Z,7.57
2023-02-22T18:56:42.269Z,6.67
2023-02-22T18:59:12.360Z,5.93
2023-02-22T19:01:49.022Z,9.70
2023-02-22T19:04:19.964Z,7.57
2023-02-22T19:06:49.924Z,8.87
2023-02-22T19:09:18.414Z,8.33
2023-02-22T19:11:48.470Z,9.07
2023-02-22T19:14:17.475Z,9.67
2023-02-22T19:16:46.580Z,7.53
2023-02-22T19:19:20.868Z,8.57
2023-02-22T19:21:51.869Z,9.10
2023-02-22T19:24:20.824Z,6.73
2023-02-22T19:26:50.951Z,9.33
2023-02-22T19:29:22.351Z,6.50
2023-02-22T19:31:51.903Z,22.57
2023-02-22T19:34:23.942Z,28.13
2023-02-22T19:36:53.792Z,16.80
2023-02-22T19:41:52.649Z,11.83
2023-02-22T19:44:22.307Z,18.27
2023-02-22T19:46:52.321Z,22.20
2023-02-22T19:49:20.702Z,8.97
2023-02-22T19:51:49.652Z,9.80
2023-02-22T19:54:21.675Z,8.53
2023-02-22T19:56:52.025Z,6.20
2023-02-22T19:59:23.233Z,6.73
2023-02-22T20:01:55.192Z,8.37
2023-02-22T20:04:24.655Z,6.17
2023-02-22T20:06:55.353Z,4.87
2023-02-22T20:09:30.167Z,5.97
2023-02-22T20:11:58.664Z,8.13
2023-02-22T20:14:28.742Z,6.00
2023-02-22T20:16:59.501Z,6.53
2023-02-22T20:19:28.733Z,7.33
2023-02-22T20:21:57.929Z,9.00
2023-02-22T20:24:28.198Z,11.77
2023-02-22T20:26:58.361Z,14.13
2023-02-22T20:29:30.674Z,13.40
2023-02-22T20:32:00.252Z,15.17
2023-02-22T20:34:31.495Z,14.83
2023-02-22T20:37:00.595Z,16.07
2023-02-22T20:39:30.646Z,11.77
2023-02-22T20:42:00.676Z,12.67
2023-02-22T20:44:29.351Z,11.53
2023-02-22T20:46:58.881Z,10.70
2023-02-22T20:49:27.573Z,12.13
2023-02-22T20:51:56.014Z,7.00
2023-02-22T20:54:24.506Z,6.63
2023-02-22T20:56:54.649Z,9.00
2023-02-22T20:59:23.128Z,8.53
2023-02-22T21:01:53.319Z,7.97
2023-02-22T21:04:22.893Z,7.23
2023-02-22T21:06:52.152Z,8.20
2023-02-22T21:09:22.003Z,7.63
2023-02-22T21:11:50.598Z,10.13
2023-02-22T21:14:20.459Z,9.30
2023-02-22T21:16:51.359Z,6.73
2023-02-22T21:19:25.615Z,10.40
2023-02-22T21:21:57.107Z,6.80
2023-02-22T21:24:27.677Z,7.03
2023-02-22T21:26:59.243Z,7.87
2023-02-22T21:29:30.327Z,7.53
2023-02-22T21:31:58.940Z,11.27
2023-02-22T21:34:27.435Z,10.30
2023-02-22T21:36:56.975Z,7.93
2023-02-22T21:39:28.690Z,8.57
2023-02-22T21:42:00.674Z,9.87
2023-02-22T21:44:31.088Z,9.17
2023-02-22T21:46:59.472Z,8.37
2023-02-22T21:49:29.108Z,17.03
2023-02-22T21:51:57.816Z,10.47
2023-02-22T21:54:28.114Z,10.47
2023-02-22T21:56:56.817Z,9.33
2023-02-22T21:59:25.198Z,9.60
2023-02-22T22:01:56.762Z,9.63
2023-02-22T22:04:27.892Z,10.03
2023-02-22T22:06:57.928Z,9.33
2023-02-22T22:09:29.268Z,9.30
2023-02-22T22:11:59.404Z,12.43
2023-02-22T22:14:28.711Z,10.10
2023-02-22T22:17:01.527Z,10.97
2023-02-22T22:19:33.773Z,12.73
2023-02-22T22:22:02.881Z,9.47
2023-02-22T22:24:32.122Z,8.67
2023-02-22T22:27:03.888Z,10.90
2023-02-22T22:29:34.571Z,9.80
2023-02-22T22:32:06.194Z,10.13
2023-02-22T22:34:38.105Z,9.57
2023-02-22T22:37:06.747Z,11.23
2023-02-22T22:39:35.219Z,8.67
2023-02-22T22:42:03.715Z,9.67
2023-02-22T22:44:42.295Z,9.53
2023-02-22T22:47:13.854Z,11.73
2023-02-22T22:49:42.865Z,10.93
2023-02-22T22:52:13.992Z,11.07
2023-02-22T22:54:43.393Z,9.93
2023-02-22T22:57:12.436Z,8.87
2023-02-22T22:59:40.975Z,11.10
2023-02-22T23:02:16.642Z,10.87
2023-02-22T23:04:59.245Z,13.13
2023-02-22T23:07:31.061Z,13.38
2023-02-22T23:09:59.430Z,12.00
2023-02-22T23:12:31.636Z,11.87
2023-02-22T23:14:59.998Z,10.53
2023-02-22T23:17:41.178Z,11.17
2023-02-22T23:20:12.629Z,11.17
2023-02-22T23:22:46.938Z,10.23
2023-02-22T23:25:15.992Z,11.30
2023-02-22T23:27:44.331Z,22.53
2023-02-22T23:30:15.127Z,24.90
2023-02-22T23:32:43.810Z,23.00
2023-02-22T23:35:14.401Z,19.07
2023-02-22T23:37:43.246Z,13.87
2023-02-22T23:40:17.112Z,14.97
2023-02-22T23:42:49.868Z,47.70
2023-02-22T23:45:23.798Z,37.50
2023-02-22T23:47:54.981Z,29.83
2023-02-22T23:50:26.792Z,30.30
2023-02-22T23:52:59.691Z,53.60
2023-02-22T23:55:31.661Z,60.67
2023-02-22T23:58:00.577Z,74.47
